Millbury, Massachusetts
Current Conditions -  °F | °C
As of 8:54 AM on Wednesday 22 Oct 2014 (Local Time) from KORH Reporting Station
Light Rain Light Rain  
Wind Chill: 42°   Ceiling: 200
Heat Index: 48°   Visibility: 2.5mi
Dew Point: 48°   Wind: 14mph
Humidity: 100%   Direction: 30°NNE
Pressure: 30.01"   Gusts: 26mph
Location:  42.19°N, 71.76°W
Report Text: KORH 221254Z 03012G23KT 2 1/2SM -RA BR OVC002 09/09 A3001 RMK AO2 SLP166 P0001 T00890089
Loading
Personal Weather Stations






























Interactive Weather Map
Tropical Storm Tracking
New forecast layout! Learn more

10-Day Weather Forecast

Advertisements
Track Severe Weather on mobile